Time;durP1;ratioP1;P1;durP2;ratioP2;P2;SDS_P1;SDS_P2;PMS_P1;PMS_P2;Temp;Humidity;BMP_temperature;BMP_pressure;BME280_temperature;BME280_humidity;BME280_pressure;Samples;Min_cycle;Max_cycle;Signal;HPM_P1;HPM_P2
2021/03/30 00:00:22;;;;;;;6.13;5.10;;;12.70;56.90;;;;;;4958633;28;20434;-72
2021/03/30 00:02:48;;;;;;;5.43;4.60;;;12.70;56.50;;;;;;4953506;28;20602;-73
2021/03/30 00:05:14;;;;;;;6.80;4.97;;;12.70;56.90;;;;;;4958838;28;20442;-72
2021/03/30 00:07:41;;;;;;;7.20;5.70;;;12.70;57.60;;;;;;4954656;28;20438;-72
2021/03/30 00:10:11;;;;;;;4.40;4.10;;;12.60;58.60;;;;;;4959230;28;20461;-73
2021/03/30 00:12:37;;;;;;;4.63;4.23;;;12.60;57.60;;;;;;4957009;28;20537;-72
2021/03/30 00:15:04;;;;;;;5.20;4.70;;;12.60;57.40;;;;;;4955421;28;20826;-71
2021/03/30 00:17:30;;;;;;;8.13;4.60;;;12.60;57.40;;;;;;4954540;28;20215;-72
2021/03/30 00:19:55;;;;;;;5.53;5.00;;;12.50;57.60;;;;;;4956200;28;20500;-71
2021/03/30 00:22:21;;;;;;;5.20;4.63;;;12.40;57.50;;;;;;4957832;28;20218;-71
2021/03/30 00:24:47;;;;;;;5.20;4.67;;;12.30;58.30;;;;;;4957009;28;21021;-72
2021/03/30 00:27:12;;;;;;;5.70;4.53;;;12.30;59.60;;;;;;4955896;28;20189;-72
2021/03/30 00:29:46;;;;;;;4.93;4.53;;;12.20;56.00;;;;;;4954545;28;20214;-72
2021/03/30 00:32:13;;;;;;;6.10;4.77;;;12.20;54.70;;;;;;4956462;28;20202;-72
2021/03/30 00:34:39;;;;;;;5.30;4.63;;;12.20;54.60;;;;;;4953660;28;20453;-73
2021/03/30 00:37:05;;;;;;;4.97;4.57;;;12.20;54.70;;;;;;4959121;28;21049;-73
2021/03/30 00:39:31;;;;;;;6.00;5.27;;;12.20;54.20;;;;;;4940172;28;20483;-74
2021/03/30 00:41:57;;;;;;;5.97;4.17;;;12.10;54.50;;;;;;4955860;28;20449;-73
2021/03/30 00:44:23;;;;;;;5.10;4.50;;;12.10;54.90;;;;;;4956226;28;20516;-72
2021/03/30 00:46:50;;;;;;;5.97;4.50;;;12.10;54.30;;;;;;4954038;28;20207;-73
2021/03/30 00:49:17;;;;;;;9.93;5.57;;;12.10;54.50;;;;;;4948476;28;20301;-73
2021/03/30 00:51:45;;;;;;;4.93;4.53;;;12.00;54.40;;;;;;4938428;28;21222;-71
2021/03/30 00:54:11;;;;;;;5.40;4.90;;;12.00;54.70;;;;;;4958048;28;20450;-73
2021/03/30 00:56:37;;;;;;;4.90;4.33;;;12.10;54.40;;;;;;4956209;28;20434;-73
2021/03/30 00:59:03;;;;;;;6.43;4.67;;;12.00;54.00;;;;;;4922690;28;20826;-73
2021/03/30 01:01:28;;;;;;;4.87;4.43;;;12.00;54.60;;;;;;4962295;28;20192;-72
2021/03/30 01:03:54;;;;;;;6.90;5.13;;;11.90;54.70;;;;;;4960423;28;20509;-73
2021/03/30 01:06:20;;;;;;;5.80;5.20;;;11.90;55.00;;;;;;4958383;28;20202;-72
2021/03/30 01:09:31;;;;;;;4.90;4.50;;;11.90;55.20;;;;;;4960438;28;20476;-75
2021/03/30 01:12:14;;;;;;;6.70;4.43;;;11.80;55.00;;;;;;4955465;28;20229;-72
2021/03/30 01:14:53;;;;;;;4.90;4.50;;;11.80;51.90;;;;;;4960025;28;20434;-73
2021/03/30 01:17:54;;;;;;;5.40;4.87;;;11.70;51.50;;;;;;4958805;28;20560;-72
2021/03/30 01:20:48;;;;;;;5.10;4.60;;;11.70;51.50;;;;;;4959174;28;20437;-72
2021/03/30 01:23:42;;;;;;;5.70;5.10;;;11.70;51.50;;;;;;4960884;28;20523;-72
2021/03/30 01:26:36;;;;;;;6.10;4.90;;;11.80;51.70;;;;;;4955493;28;20525;-73
2021/03/30 01:29:11;;;;;;;5.43;4.93;;;11.70;51.90;;;;;;4962407;28;20469;-74
2021/03/30 01:31:40;;;;;;;5.80;5.23;;;11.70;52.30;;;;;;4958961;28;20445;-71
2021/03/30 01:34:09;;;;;;;6.73;4.50;;;11.60;52.30;;;;;;4960403;28;20434;-71
2021/03/30 01:36:38;;;;;;;4.87;4.47;;;11.60;52.10;;;;;;4941794;28;20485;-72
2021/03/30 01:39:06;;;;;;;5.40;4.90;;;11.60;52.30;;;;;;4957340;28;20464;-72
2021/03/30 01:41:33;;;;;;;4.40;4.10;;;11.50;52.30;;;;;;4938910;28;20429;-73
2021/03/30 01:43:59;;;;;;;9.53;5.43;;;11.50;52.00;;;;;;4945107;28;20579;-70
2021/03/30 01:46:29;;;;;;;5.63;5.00;;;11.40;52.00;;;;;;4963834;28;20977;-74
2021/03/30 01:48:56;;;;;;;5.67;5.10;;;11.40;52.20;;;;;;4955600;28;20462;-70
2021/03/30 01:51:22;;;;;;;6.00;5.10;;;11.40;52.50;;;;;;4966446;28;20512;-71
2021/03/30 01:53:48;;;;;;;5.57;4.70;;;11.40;52.90;;;;;;4961899;28;20438;-72
2021/03/30 01:56:14;;;;;;;5.77;5.27;;;11.30;52.80;;;;;;4963079;28;21284;-71
2021/03/30 01:58:40;;;;;;;4.97;4.57;;;11.30;52.80;;;;;;4968084;28;20735;-71
2021/03/30 02:01:07;;;;;;;4.80;4.30;;;11.30;53.60;;;;;;4962779;28;20540;-71
2021/03/30 02:03:33;;;;;;;5.87;5.40;;;11.20;52.90;;;;;;4965491;28;20482;-71
2021/03/30 02:06:00;;;;;;;5.17;4.60;;;11.20;52.90;;;;;;4960975;28;20440;-71
2021/03/30 02:08:31;;;;;;;5.17;4.70;;;11.10;52.90;;;;;;4966877;28;21397;-71
2021/03/30 02:10:57;;;;;;;4.97;4.57;;;11.00;52.90;;;;;;4963235;28;20575;-72
2021/03/30 02:13:38;;;;;;;4.60;4.20;;;11.00;52.90;;;;;;4961420;28;20516;-72
2021/03/30 02:16:33;;;;;;;5.07;4.67;;;10.90;53.10;;;;;;4964604;28;20464;-71
2021/03/30 02:19:13;;;;;;;7.03;4.53;;;10.90;53.30;;;;;;4945466;28;20497;-73
2021/03/30 02:21:44;;;;;;;5.07;4.33;;;10.90;53.30;;;;;;4942310;28;20450;-73
2021/03/30 02:24:11;;;;;;;5.10;4.57;;;10.80;53.30;;;;;;4964372;28;20520;-75
2021/03/30 02:26:44;;;;;;;7.30;4.80;;;10.90;53.10;;;;;;4962037;28;20450;-72
2021/03/30 02:29:14;;;;;;;4.90;4.40;;;10.80;53.10;;;;;;4947058;28;20493;-72
2021/03/30 02:31:42;;;;;;;6.10;4.60;;;10.90;53.00;;;;;;4962970;28;21062;-74
2021/03/30 02:34:10;;;;;;;6.37;4.63;;;10.90;53.00;;;;;;4962908;28;21010;-73
2021/03/30 02:36:36;;;;;;;6.47;4.40;;;10.80;52.90;;;;;;4963802;28;20512;-73
2021/03/30 02:39:11;;;;;;;8.23;4.40;;;10.80;53.00;;;;;;4962481;28;20483;-72
2021/03/30 02:41:39;;;;;;;6.00;4.87;;;10.70;53.00;;;;;;4964482;28;20433;-72
2021/03/30 02:44:07;;;;;;;5.77;4.90;;;10.70;53.30;;;;;;4962791;28;20987;-73
2021/03/30 02:46:34;;;;;;;5.37;4.87;;;10.70;53.40;;;;;;4965689;28;20548;-71
2021/03/30 02:49:00;;;;;;;4.90;4.47;;;10.60;53.40;;;;;;4960275;28;20476;-73
2021/03/30 02:51:28;;;;;;;7.63;5.10;;;10.60;53.30;;;;;;4962654;28;20434;-73
2021/03/30 02:53:55;;;;;;;5.77;3.90;;;10.50;53.40;;;;;;4959446;28;20450;-73
2021/03/30 02:56:22;;;;;;;9.37;4.93;;;10.40;53.50;;;;;;4963188;28;20454;-72
2021/03/30 02:58:50;;;;;;;6.13;4.20;;;10.40;53.60;;;;;;4962776;28;21011;-72
2021/03/30 03:01:16;;;;;;;7.00;4.80;;;10.30;53.50;;;;;;4959776;28;20489;-71
2021/03/30 03:03:43;;;;;;;4.40;4.00;;;10.30;54.00;;;;;;4966301;28;20918;-71
2021/03/30 03:06:10;;;;;;;5.50;4.30;;;10.30;54.10;;;;;;4960891;28;20792;-72
2021/03/30 03:08:36;;;;;;;6.53;4.60;;;10.20;54.10;;;;;;4962109;28;20459;-71
2021/03/30 03:11:03;;;;;;;4.80;4.40;;;10.10;54.00;;;;;;4960340;28;20441;-72
2021/03/30 03:13:30;;;;;;;6.23;4.07;;;10.00;54.00;;;;;;4964253;28;21786;-73
2021/03/30 03:15:56;;;;;;;4.30;3.90;;;9.90;54.90;;;;;;4965084;28;20913;-73
2021/03/30 03:18:23;;;;;;;4.60;4.20;;;9.90;54.90;;;;;;4961640;28;20466;-73
2021/03/30 03:20:49;;;;;;;4.80;4.23;;;9.80;55.10;;;;;;4964896;28;20191;-72
2021/03/30 03:23:16;;;;;;;5.33;4.83;;;9.80;55.20;;;;;;4949356;28;20480;-72
2021/03/30 03:25:44;;;;;;;8.70;4.80;;;9.80;55.20;;;;;;4964576;28;20449;-72
2021/03/30 03:28:11;;;;;;;6.77;4.60;;;9.80;55.30;;;;;;4962713;28;20987;-72
2021/03/30 03:30:39;;;;;;;6.33;4.67;;;9.70;55.50;;;;;;4963307;28;20980;-72
2021/03/30 03:33:13;;;;;;;5.57;4.80;;;9.70;55.60;;;;;;4965799;28;20450;-72
2021/03/30 03:35:40;;;;;;;5.73;5.13;;;9.70;55.70;;;;;;4959332;28;20862;-73
2021/03/30 03:38:05;;;;;;;6.23;5.20;;;9.60;55.80;;;;;;4960910;28;20426;-72
2021/03/30 03:40:34;;;;;;;4.70;4.40;;;9.60;55.80;;;;;;4960849;28;20524;-71
2021/03/30 03:43:00;;;;;;;7.40;4.60;;;9.50;55.90;;;;;;4964036;28;20561;-71
2021/03/30 03:45:26;;;;;;;4.93;4.37;;;9.50;55.90;;;;;;4962400;28;20862;-73
2021/03/30 03:47:52;;;;;;;5.50;4.23;;;9.50;55.80;;;;;;4943615;28;20198;-73
2021/03/30 03:50:18;;;;;;;5.03;4.17;;;9.50;55.80;;;;;;4963328;28;20262;-71
2021/03/30 03:52:47;;;;;;;4.33;3.87;;;9.40;55.90;;;;;;4958340;28;20218;-73
2021/03/30 03:55:15;;;;;;;5.47;4.00;;;9.40;56.20;;;;;;4963574;28;20259;-72
2021/03/30 03:57:51;;;;;;;7.27;4.33;;;9.40;56.20;;;;;;4960853;28;21996;-73
2021/03/30 04:00:18;;;;;;;6.43;4.00;;;9.40;56.40;;;;;;4959447;28;20506;-72
2021/03/30 04:02:58;;;;;;;4.67;4.27;;;9.40;56.60;;;;;;4963838;28;21003;-72
2021/03/30 04:05:35;;;;;;;4.03;3.27;;;9.40;56.60;;;;;;4959173;28;20438;-72
2021/03/30 04:08:08;;;;;;;6.20;4.20;;;9.40;56.50;;;;;;4963172;28;20442;-73
2021/03/30 04:10:34;;;;;;;5.10;3.90;;;9.40;56.70;;;;;;4960992;28;20444;-72
2021/03/30 04:13:01;;;;;;;4.93;3.77;;;9.40;56.70;;;;;;4961911;28;21087;-72
2021/03/30 04:15:27;;;;;;;4.57;4.17;;;9.40;56.90;;;;;;4965329;28;20571;-72
2021/03/30 04:17:53;;;;;;;4.70;4.30;;;9.40;57.20;;;;;;4960272;28;20446;-72
2021/03/30 04:20:20;;;;;;;4.40;4.00;;;9.40;57.20;;;;;;4961586;28;20524;-72
2021/03/30 04:22:58;;;;;;;4.67;4.27;;;9.40;56.90;;;;;;4960904;28;20477;-72
2021/03/30 04:25:24;;;;;;;5.23;4.33;;;9.30;57.10;;;;;;4960648;28;20457;-72
2021/03/30 04:27:49;;;;;;;5.23;4.23;;;9.30;57.50;;;;;;4960467;28;20493;-73
2021/03/30 04:30:16;;;;;;;4.27;3.93;;;9.20;57.60;;;;;;4961912;28;20669;-74
2021/03/30 04:32:42;;;;;;;5.90;4.73;;;9.20;57.70;;;;;;4960992;28;20264;-73
2021/03/30 04:35:09;;;;;;;5.27;4.13;;;9.20;58.00;;;;;;4961214;28;20486;-73
2021/03/30 04:37:34;;;;;;;4.67;4.27;;;9.20;58.20;;;;;;4965004;28;20529;-73
2021/03/30 04:40:00;;;;;;;5.47;4.97;;;9.20;58.00;;;;;;4961723;28;20537;-72
2021/03/30 04:42:25;;;;;;;7.07;5.90;;;9.20;58.00;;;;;;4963336;28;20708;-73
2021/03/30 04:44:51;;;;;;;7.50;4.67;;;9.20;58.30;;;;;;4963636;28;20191;-72
2021/03/30 04:47:18;;;;;;;5.70;5.20;;;9.20;58.40;;;;;;4963577;28;20234;-72
2021/03/30 04:49:43;;;;;;;5.30;4.80;;;9.20;58.40;;;;;;4964789;28;20190;-72
2021/03/30 04:52:10;;;;;;;5.40;4.43;;;9.20;58.80;;;;;;4961845;28;20434;-72
2021/03/30 04:54:36;;;;;;;5.10;4.67;;;9.20;58.80;;;;;;4957286;28;20206;-72
2021/03/30 04:57:01;;;;;;;5.20;4.80;;;9.10;58.70;;;;;;4958250;28;20932;-72
2021/03/30 04:59:27;;;;;;;7.27;4.50;;;9.10;58.90;;;;;;4962164;28;20269;-73
2021/03/30 05:01:53;;;;;;;5.93;4.20;;;9.10;59.00;;;;;;4960534;28;20254;-72
2021/03/30 05:04:19;;;;;;;4.43;4.03;;;9.20;58.80;;;;;;4950271;28;20182;-73
2021/03/30 05:06:44;;;;;;;6.60;4.17;;;9.30;58.50;;;;;;4962924;28;20485;-71
2021/03/30 05:09:10;;;;;;;4.80;4.37;;;9.30;58.70;;;;;;4962469;28;20755;-71
2021/03/30 05:11:36;;;;;;;6.40;4.70;;;9.30;58.60;;;;;;4963361;28;20178;-71
2021/03/30 05:14:02;;;;;;;4.93;4.43;;;9.30;58.60;;;;;;4961489;28;20203;-72
2021/03/30 05:16:27;;;;;;;4.53;4.13;;;9.10;58.60;;;;;;4964631;28;20209;-74
2021/03/30 05:18:53;;;;;;;4.50;3.80;;;9.10;58.60;;;;;;4960025;28;20499;-71
2021/03/30 05:21:18;;;;;;;9.97;4.50;;;9.00;58.50;;;;;;4960776;28;20201;-71
2021/03/30 05:23:45;;;;;;;5.10;4.60;;;9.10;58.40;;;;;;4961545;28;20210;-72
2021/03/30 05:26:10;;;;;;;7.37;5.10;;;9.00;58.90;;;;;;4962974;28;20205;-72
2021/03/30 05:28:36;;;;;;;5.00;4.60;;;8.90;59.10;;;;;;4956771;28;21118;-72
2021/03/30 05:31:02;;;;;;;8.10;5.20;;;8.90;59.60;;;;;;4959426;28;20442;-72
2021/03/30 05:33:28;;;;;;;4.67;4.00;;;8.90;59.30;;;;;;4961318;28;20490;-73
2021/03/30 05:35:53;;;;;;;4.97;4.47;;;8.90;59.20;;;;;;4959397;28;20376;-72
2021/03/30 05:38:19;;;;;;;4.97;4.57;;;9.00;59.10;;;;;;4961214;28;20245;-70
2021/03/30 05:40:45;;;;;;;9.20;4.20;;;9.00;59.30;;;;;;4957041;28;20732;-72
2021/03/30 05:43:11;;;;;;;5.03;4.53;;;9.00;59.50;;;;;;4963906;28;20267;-72
2021/03/30 05:45:37;;;;;;;6.47;4.87;;;8.90;59.60;;;;;;4957974;28;20273;-73
2021/03/30 05:48:08;;;;;;;4.60;4.20;;;8.90;60.10;;;;;;4962479;28;20919;-72
2021/03/30 05:50:34;;;;;;;4.67;4.27;;;9.00;60.00;;;;;;4962193;28;20245;-72
2021/03/30 05:53:10;;;;;;;5.10;4.70;;;9.00;60.10;;;;;;4944787;28;20458;-72
2021/03/30 05:55:41;;;;;;;6.37;5.77;;;9.10;60.10;;;;;;4943597;28;20963;-72
2021/03/30 05:58:07;;;;;;;5.23;4.80;;;9.10;60.00;;;;;;4957976;28;20849;-72
2021/03/30 06:00:41;;;;;;;5.27;4.87;;;9.10;60.10;;;;;;4963233;28;20418;-73
2021/03/30 06:03:09;;;;;;;6.93;4.50;;;9.10;60.20;;;;;;4959974;28;20538;-73
2021/03/30 06:05:36;;;;;;;5.80;4.83;;;9.20;60.10;;;;;;4960158;28;20618;-72
2021/03/30 06:08:03;;;;;;;4.50;4.10;;;9.20;59.40;;;;;;4959091;28;20437;-74
2021/03/30 06:10:31;;;;;;;5.00;4.20;;;9.20;59.30;;;;;;4960945;28;20848;-71
2021/03/30 06:13:03;;;;;;;5.10;4.37;;;9.10;59.20;;;;;;4959220;28;20529;-72
2021/03/30 06:15:30;;;;;;;4.87;4.40;;;9.10;59.30;;;;;;4960864;28;20446;-73
2021/03/30 06:17:57;;;;;;;5.30;4.87;;;9.10;59.50;;;;;;4942537;28;20438;-73
2021/03/30 06:20:33;;;;;;;5.10;4.53;;;9.20;59.50;;;;;;4964460;28;20447;-72
2021/03/30 06:23:01;;;;;;;4.80;4.37;;;9.10;59.70;;;;;;4959771;28;20537;-71
2021/03/30 06:25:39;;;;;;;5.97;4.90;;;9.20;59.90;;;;;;4961563;28;20469;-71
2021/03/30 06:28:22;;;;;;;5.83;4.60;;;9.20;59.80;;;;;;4959147;28;20476;-72
2021/03/30 06:31:15;;;;;;;5.20;4.57;;;9.40;59.90;;;;;;4958503;28;21461;-72
2021/03/30 06:33:54;;;;;;;4.80;4.30;;;9.50;59.90;;;;;;4964268;28;20437;-70
2021/03/30 06:36:22;;;;;;;5.40;4.90;;;9.50;59.80;;;;;;4962672;28;20460;-73
2021/03/30 06:38:53;;;;;;;5.10;4.60;;;9.60;59.80;;;;;;4966824;28;20454;-73
2021/03/30 06:47:17;;;;;;;5.00;4.00;;;9.90;59.40;;;;;;4960453;28;20516;-72
2021/03/30 06:50:01;;;;;;;7.40;4.70;;;10.00;58.60;;;;;;4962410;28;20450;-73
2021/03/30 06:52:33;;;;;;;7.33;5.00;;;10.10;58.40;;;;;;4966433;28;20458;-72
2021/03/30 06:55:00;;;;;;;6.43;4.63;;;10.10;58.50;;;;;;4967130;28;20433;-73
2021/03/30 06:57:43;;;;;;;9.43;4.50;;;10.10;58.60;;;;;;4945670;28;20437;-73
2021/03/30 07:00:11;;;;;;;6.80;4.67;;;10.20;58.40;;;;;;4957176;28;20975;-72
2021/03/30 07:02:48;;;;;;;7.20;5.50;;;10.30;58.30;;;;;;4948698;28;20898;-71
2021/03/30 07:05:34;;;;;;;11.93;5.53;;;10.30;58.10;;;;;;4959182;28;20440;-72
2021/03/30 07:08:02;;;;;;;6.33;5.00;;;10.30;58.10;;;;;;4961231;28;20489;-70
2021/03/30 07:10:29;;;;;;;5.67;4.70;;;10.40;58.30;;;;;;4959590;28;20430;-72
2021/03/30 07:12:55;;;;;;;7.20;4.93;;;10.50;58.40;;;;;;4964406;28;20438;-73
2021/03/30 07:15:23;;;;;;;6.23;5.63;;;10.60;58.80;;;;;;4959498;28;20605;-72
2021/03/30 07:18:32;;;;;;;5.90;5.30;;;10.70;58.70;;;;;;4943549;28;21212;-74
2021/03/30 07:21:09;;;;;;;8.10;5.93;;;10.80;58.70;;;;;;4964819;28;20449;-73
2021/03/30 07:23:35;;;;;;;9.00;5.67;;;11.00;58.50;;;;;;4946844;28;20497;-72
2021/03/30 07:26:05;;;;;;;6.30;5.70;;;11.10;58.50;;;;;;4961238;28;20476;-73
2021/03/30 07:28:48;;;;;;;10.93;6.33;;;11.20;58.30;;;;;;4944712;28;20735;-72
2021/03/30 07:31:22;;;;;;;7.10;6.40;;;11.30;58.20;;;;;;4963038;28;20886;-73
2021/03/30 07:34:01;;;;;;;8.30;5.90;;;11.40;58.00;;;;;;4962693;28;20451;-72
2021/03/30 07:36:33;;;;;;;7.87;6.17;;;11.50;58.00;;;;;;4955872;28;20536;-70
2021/03/30 07:39:00;;;;;;;6.37;5.77;;;11.60;57.80;;;;;;4961864;28;20462;-73
2021/03/30 07:41:26;;;;;;;9.13;5.97;;;11.60;57.80;;;;;;4961346;28;20433;-72
2021/03/30 07:43:57;;;;;;;6.60;5.90;;;11.70;57.80;;;;;;4961431;28;20609;-73
2021/03/30 07:46:23;;;;;;;5.80;5.20;;;11.80;57.30;;;;;;4962914;28;20948;-72
2021/03/30 07:48:50;;;;;;;7.20;6.50;;;12.00;57.10;;;;;;4957815;28;20468;-72
2021/03/30 07:51:23;;;;;;;6.50;5.90;;;12.10;56.90;;;;;;4962947;28;20565;-71
2021/03/30 07:53:54;;;;;;;7.27;6.17;;;12.20;56.70;;;;;;4958290;28;20437;-73
2021/03/30 07:56:26;;;;;;;6.63;5.70;;;12.40;56.60;;;;;;4959589;28;20908;-73
2021/03/30 07:58:54;;;;;;;13.03;6.27;;;12.40;55.30;;;;;;4956757;28;20500;-71
2021/03/30 08:01:29;;;;;;;6.20;5.67;;;12.50;55.00;;;;;;4922619;28;20449;-74
2021/03/30 08:03:56;;;;;;;12.93;5.60;;;12.60;54.80;;;;;;4962045;28;20476;-72
2021/03/30 08:06:23;;;;;;;6.67;6.07;;;12.70;55.20;;;;;;4962002;28;20832;-71
2021/03/30 08:09:11;;;;;;;6.10;5.50;;;12.80;54.50;;;;;;4960644;28;20458;-73
2021/03/30 08:11:37;;;;;;;7.70;6.80;;;13.00;54.40;;;;;;4964644;28;20414;-72
2021/03/30 08:14:03;;;;;;;8.13;6.00;;;13.10;54.20;;;;;;4960830;28;20550;-71
2021/03/30 08:16:29;;;;;;;8.47;6.43;;;13.10;53.90;;;;;;4963476;28;20967;-72
2021/03/30 08:18:58;;;;;;;14.40;6.47;;;13.10;53.50;;;;;;4961131;28;20462;-73
2021/03/30 08:21:24;;;;;;;6.47;5.87;;;13.20;53.50;;;;;;4961625;28;20446;-72
2021/03/30 08:23:52;;;;;;;7.47;5.90;;;13.30;53.30;;;;;;4963345;28;20467;-71
2021/03/30 08:26:23;;;;;;;8.47;7.30;;;13.40;53.40;;;;;;4964575;28;21008;-73
2021/03/30 08:28:55;;;;;;;8.10;6.20;;;13.50;53.30;;;;;;4960288;28;20462;-74
2021/03/30 08:31:29;;;;;;;10.23;6.43;;;13.60;53.70;;;;;;4959974;28;20213;-74
2021/03/30 08:34:00;;;;;;;7.97;5.63;;;13.80;53.40;;;;;;4944364;28;20425;-74
2021/03/30 08:36:45;;;;;;;8.00;5.80;;;14.10;53.30;;;;;;4961417;28;20438;-74
2021/03/30 08:39:23;;;;;;;10.50;5.50;;;14.30;53.20;;;;;;4957152;28;20464;-72
2021/03/30 08:41:55;;;;;;;7.73;6.53;;;14.50;53.20;;;;;;4960744;28;20904;-74
2021/03/30 08:44:39;;;;;;;7.00;5.43;;;14.70;53.10;;;;;;4945135;28;20474;-73
2021/03/30 08:47:05;;;;;;;6.27;4.73;;;14.80;52.90;;;;;;4961271;28;20792;-71
2021/03/30 08:49:40;;;;;;;6.40;4.73;;;15.00;52.70;;;;;;4961872;28;20460;-72
2021/03/30 08:52:14;;;;;;;5.60;5.10;;;15.20;52.70;;;;;;4962184;28;21089;-73
2021/03/30 08:54:59;;;;;;;4.67;4.27;;;15.40;52.40;;;;;;4960674;28;20482;-73
2021/03/30 08:57:30;;;;;;;5.93;5.33;;;15.60;51.90;;;;;;4960080;28;20438;-72
2021/03/30 08:59:56;;;;;;;5.67;5.17;;;15.80;51.40;;;;;;4960726;28;20433;-72
2021/03/30 09:02:24;;;;;;;10.13;6.60;;;16.00;51.00;;;;;;4961965;28;20505;-72
2021/03/30 09:04:50;;;;;;;9.30;5.30;;;16.20;50.50;;;;;;4961830;28;20465;-72
2021/03/30 09:07:16;;;;;;;5.30;4.90;;;16.40;50.20;;;;;;4962137;28;20426;-72
2021/03/30 09:09:42;;;;;;;9.53;5.20;;;17.60;50.00;;;;;;4959192;28;20472;-72
2021/03/30 09:12:16;;;;;;;5.50;5.00;;;19.80;49.20;;;;;;4960547;28;20438;-73
2021/03/30 09:14:42;;;;;;;6.43;5.40;;;22.50;46.80;;;;;;4961789;28;20651;-72
2021/03/30 09:17:09;;;;;;;8.20;4.70;;;24.50;53.00;;;;;;4957196;28;20442;-72
2021/03/30 09:19:42;;;;;;;5.67;5.17;;;26.30;41.30;;;;;;4961241;28;20972;-73
2021/03/30 09:22:14;;;;;;;5.60;5.10;;;28.40;38.90;;;;;;4964246;28;20438;-72
2021/03/30 09:25:03;;;;;;;5.60;5.10;;;30.00;35.00;;;;;;4959555;28;20442;-73
2021/03/30 09:27:32;;;;;;;6.37;5.37;;;31.50;34.00;;;;;;4962277;28;20434;-71
2021/03/30 09:30:09;;;;;;;6.70;6.10;;;32.80;31.80;;;;;;4958365;28;20440;-72
2021/03/30 09:32:37;;;;;;;5.70;5.30;;;33.90;30.70;;;;;;4961666;28;20464;-74
2021/03/30 09:35:14;;;;;;;6.70;6.03;;;35.00;29.70;;;;;;4961336;28;20523;-73
2021/03/30 09:37:45;;;;;;;6.90;6.20;;;35.50;28.30;;;;;;4962607;28;20501;-72
2021/03/30 09:40:14;;;;;;;6.57;6.07;;;36.30;27.70;;;;;;4960977;28;20445;-73
2021/03/30 09:42:44;;;;;;;6.50;5.63;;;36.80;27.20;;;;;;4963458;28;20465;-72
2021/03/30 09:45:15;;;;;;;6.80;6.20;;;37.30;27.10;;;;;;4960351;28;20401;-73
2021/03/30 09:47:42;;;;;;;6.70;6.00;;;38.00;26.50;;;;;;4942723;28;20442;-73
2021/03/30 09:50:09;;;;;;;6.30;5.90;;;38.20;26.20;;;;;;4959119;28;20861;-73
2021/03/30 09:52:37;;;;;;;8.87;5.60;;;37.90;26.10;;;;;;4962068;28;20831;-74
2021/03/30 09:55:04;;;;;;;6.03;5.63;;;38.00;25.80;;;;;;4959346;28;20510;-73
2021/03/30 09:57:31;;;;;;;7.73;6.10;;;37.70;25.90;;;;;;4937883;28;21129;-73
2021/03/30 09:59:57;;;;;;;6.07;5.47;;;37.50;25.80;;;;;;4961184;28;20524;-72
2021/03/30 10:02:28;;;;;;;6.03;5.53;;;37.40;25.90;;;;;;4943632;28;21122;-73
2021/03/30 10:04:59;;;;;;;7.13;6.63;;;37.10;26.00;;;;;;4962488;28;21246;-72
2021/03/30 10:07:37;;;;;;;7.43;6.83;;;36.80;26.30;;;;;;4961933;28;20999;-73
2021/03/30 10:10:07;;;;;;;6.80;6.30;;;36.40;26.20;;;;;;4962285;28;20476;-72
2021/03/30 10:12:57;;;;;;;6.73;6.23;;;35.90;26.30;;;;;;4961877;28;20444;-72
2021/03/30 10:15:36;;;;;;;7.87;7.13;;;35.20;26.60;;;;;;4960741;28;20517;-73
2021/03/30 10:18:04;;;;;;;7.50;6.77;;;34.60;27.10;;;;;;4963442;28;20453;-72
2021/03/30 10:20:30;;;;;;;8.17;7.30;;;34.20;27.80;;;;;;4959991;28;20845;-73
2021/03/30 10:22:56;;;;;;;8.83;7.17;;;33.80;27.70;;;;;;4962477;28;20489;-73
2021/03/30 10:25:27;;;;;;;9.60;7.50;;;33.10;28.10;;;;;;4946361;28;20519;-72
2021/03/30 10:27:58;;;;;;;7.73;7.03;;;32.80;29.20;;;;;;4945540;28;20203;-73
2021/03/30 10:30:28;;;;;;;7.33;6.73;;;32.50;29.20;;;;;;4961411;28;20453;-72
2021/03/30 10:32:58;;;;;;;7.30;6.70;;;32.20;29.10;;;;;;4963644;28;20493;-71
2021/03/30 10:35:24;;;;;;;10.50;7.50;;;31.80;29.70;;;;;;4961665;28;20450;-72
2021/03/30 10:37:51;;;;;;;8.20;7.33;;;31.20;29.60;;;;;;4960366;28;20431;-73
2021/03/30 10:40:17;;;;;;;7.77;6.97;;;30.80;30.00;;;;;;4959985;28;20470;-73
2021/03/30 10:42:43;;;;;;;8.83;7.03;;;30.40;30.20;;;;;;4965956;28;20465;-74
2021/03/30 10:45:11;;;;;;;7.40;6.70;;;30.50;30.40;;;;;;4963154;28;20417;-75
2021/03/30 10:47:44;;;;;;;7.87;7.17;;;31.00;30.60;;;;;;4965338;28;20260;-75
2021/03/30 10:50:16;;;;;;;9.13;6.80;;;31.50;30.30;;;;;;4960556;28;20462;-73
2021/03/30 10:52:43;;;;;;;8.63;7.30;;;31.60;30.00;;;;;;4969444;28;20553;-75
2021/03/30 10:55:13;;;;;;;6.80;6.20;;;31.10;30.50;;;;;;4981062;28;20503;-73
2021/03/30 10:57:43;;;;;;;8.27;7.47;;;30.40;30.80;;;;;;4963287;28;20446;-72
2021/03/30 11:00:10;;;;;;;7.93;7.20;;;30.00;31.90;;;;;;4958256;28;20450;-73
2021/03/30 11:02:37;;;;;;;7.63;6.93;;;29.70;31.60;;;;;;4963574;28;20556;-75
2021/03/30 11:05:04;;;;;;;8.80;7.73;;;29.40;31.80;;;;;;4965566;28;20461;-72
2021/03/30 11:07:29;;;;;;;8.33;7.43;;;29.10;32.00;;;;;;4945061;28;20446;-73
2021/03/30 11:09:55;;;;;;;8.53;7.73;;;28.90;32.40;;;;;;4959863;28;20662;-72
2021/03/30 11:12:21;;;;;;;9.70;8.70;;;29.80;32.80;;;;;;4961187;28;20191;-73
2021/03/30 11:14:47;;;;;;;10.10;9.00;;;31.40;32.40;;;;;;4967180;28;20186;-67
2021/03/30 11:17:13;;;;;;;9.93;8.67;;;33.00;31.90;;;;;;4963029;28;20441;-71
2021/03/30 11:19:38;;;;;;;10.87;8.00;;;34.70;31.30;;;;;;4961665;28;20286;-72
2021/03/30 11:22:05;;;;;;;8.00;7.23;;;36.20;30.30;;;;;;4961300;28;20213;-73
2021/03/30 11:24:33;;;;;;;8.47;7.73;;;37.60;30.50;;;;;;4965264;28;20195;-72
2021/03/30 11:26:59;;;;;;;8.30;7.50;;;38.90;29.20;;;;;;4962368;28;20453;-74
2021/03/30 11:29:39;;;;;;;12.40;7.93;;;40.40;28.30;;;;;;4960311;28;20536;-75
2021/03/30 11:34:40;;;;;;;11.10;10.10;;;42.60;26.40;;;;;;4961378;28;20434;-75
2021/03/30 11:40:05;;;;;;;8.60;7.40;;;44.30;26.30;;;;;;4937165;28;20458;-70
2021/03/30 11:42:31;;;;;;;8.50;7.80;;;44.30;24.80;;;;;;4962324;28;20510;-71
2021/03/30 11:44:56;;;;;;;8.10;7.30;;;44.00;25.30;;;;;;4963484;28;20554;-71
2021/03/30 11:47:22;;;;;;;8.70;7.80;;;43.30;25.10;;;;;;4944032;28;20197;-69
2021/03/30 11:49:48;;;;;;;9.07;8.27;;;42.60;25.40;;;;;;4961986;28;20266;-70
2021/03/30 11:52:13;;;;;;;8.37;7.60;;;41.80;25.10;;;;;;4961025;28;20701;-69
2021/03/30 11:54:41;;;;;;;9.23;8.13;;;41.50;25.60;;;;;;4957365;28;20268;-70
2021/03/30 11:57:06;;;;;;;10.90;8.43;;;41.50;25.20;;;;;;4962455;28;20264;-70
2021/03/30 11:59:32;;;;;;;7.73;7.13;;;42.60;26.00;;;;;;4962168;28;20919;-70
2021/03/30 12:01:58;;;;;;;8.70;7.90;;;43.20;26.80;;;;;;4960594;28;20229;-73
2021/03/30 12:04:23;;;;;;;8.10;7.30;;;43.40;25.20;;;;;;4961904;28;20222;-69
2021/03/30 12:06:49;;;;;;;9.30;8.30;;;43.20;23.90;;;;;;4962448;28;20281;-67
2021/03/30 12:09:15;;;;;;;9.17;8.37;;;42.70;25.30;;;;;;4958819;28;20376;-69
2021/03/30 12:11:44;;;;;;;9.83;7.80;;;42.70;23.90;;;;;;4961330;28;20638;-68
2021/03/30 12:14:11;;;;;;;7.83;7.23;;;42.40;25.80;;;;;;4942565;28;20202;-69
2021/03/30 12:16:36;;;;;;;8.43;7.63;;;42.50;25.00;;;;;;4961349;28;20884;-68
2021/03/30 12:19:02;;;;;;;7.77;7.17;;;42.20;23.80;;;;;;4959761;28;20492;-68
2021/03/30 12:21:28;;;;;;;8.90;7.30;;;42.10;24.60;;;;;;4961750;28;20766;-69
2021/03/30 12:23:53;;;;;;;8.83;8.03;;;42.40;24.70;;;;;;4958506;28;22098;-69
2021/03/30 12:26:19;;;;;;;7.20;6.50;;;42.50;25.70;;;;;;4960941;28;20245;-69
2021/03/30 12:28:45;;;;;;;7.40;6.87;;;42.30;24.30;;;;;;4963477;28;20202;-68
2021/03/30 12:31:11;;;;;;;7.37;6.77;;;41.50;24.00;;;;;;4959471;28;20273;-68
2021/03/30 12:33:38;;;;;;;14.13;8.13;;;41.30;24.70;;;;;;4964220;28;20316;-68
2021/03/30 12:36:03;;;;;;;7.43;6.63;;;41.00;24.20;;;;;;4964560;28;20472;-69
2021/03/30 12:38:29;;;;;;;7.87;7.03;;;39.80;24.60;;;;;;4960754;28;20554;-69
2021/03/30 12:40:55;;;;;;;11.20;9.93;;;39.30;24.80;;;;;;4925275;28;20198;-69
2021/03/30 12:43:20;;;;;;;7.33;6.80;;;38.90;25.20;;;;;;4961065;28;20601;-69
2021/03/30 12:45:46;;;;;;;12.00;7.20;;;38.50;25.10;;;;;;4964387;28;20186;-69
2021/03/30 12:48:13;;;;;;;6.17;5.63;;;39.20;24.70;;;;;;4959407;28;20287;-69
2021/03/30 12:50:39;;;;;;;7.47;6.97;;;40.90;25.70;;;;;;4966815;28;20748;-69
2021/03/30 12:53:06;;;;;;;7.83;7.17;;;41.70;23.50;;;;;;4974783;28;20501;-71
2021/03/30 12:55:31;;;;;;;10.40;6.90;;;41.00;23.10;;;;;;4966217;28;20481;-72
2021/03/30 12:57:57;;;;;;;7.57;6.93;;;39.80;23.60;;;;;;4959040;28;21004;-72
2021/03/30 13:00:23;;;;;;;7.70;7.00;;;38.50;24.20;;;;;;4959733;28;20765;-72
2021/03/30 13:02:49;;;;;;;7.13;6.20;;;37.90;24.30;;;;;;4941313;28;20342;-73
2021/03/30 13:05:15;;;;;;;6.60;5.90;;;37.70;24.10;;;;;;4959128;28;20186;-73
2021/03/30 13:07:41;;;;;;;6.63;6.03;;;39.30;24.30;;;;;;4963330;28;20446;-73
2021/03/30 13:10:08;;;;;;;6.73;6.23;;;42.30;22.80;;;;;;4957871;28;20273;-73